sensor_id;sensor_type;location;lat;lon;timestamp;pressure;altitude;pressure_sealevel;temperature;humidity
54994;BME280;40891;47.242;8.648;2023-04-02T00:00:31;95738.47;;;8.46;83.29
54994;BME280;40891;47.242;8.648;2023-04-02T00:03:04;95733.69;;;8.47;83.14
54994;BME280;40891;47.242;8.648;2023-04-02T00:08:03;95747.53;;;8.47;81.63
54994;BME280;40891;47.242;8.648;2023-04-02T00:10:37;95741.41;;;8.52;82.44
54994;BME280;40891;47.242;8.648;2023-04-02T00:15:40;95758.03;;;8.52;82.22
54994;BME280;40891;47.242;8.648;2023-04-02T00:18:06;95749.22;;;8.44;83.84
54994;BME280;40891;47.242;8.648;2023-04-02T00:20:39;95757.66;;;8.41;83.04
54994;BME280;40891;47.242;8.648;2023-04-02T00:23:06;95766.59;;;8.45;83.03
54994;BME280;40891;47.242;8.648;2023-04-02T00:25:36;95757.25;;;8.51;81.02
54994;BME280;40891;47.242;8.648;2023-04-02T00:28:11;95761.41;;;8.47;83.52
54994;BME280;40891;47.242;8.648;2023-04-02T00:31:08;95760.44;;;8.41;84.13
54994;BME280;40891;47.242;8.648;2023-04-02T00:33:30;95757.63;;;8.32;84.98
54994;BME280;40891;47.242;8.648;2023-04-02T00:35:56;95756.44;;;8.42;83.63
54994;BME280;40891;47.242;8.648;2023-04-02T00:38:30;95761.31;;;8.38;84.60
54994;BME280;40891;47.242;8.648;2023-04-02T00:40:59;95759.59;;;8.31;85.46
54994;BME280;40891;47.242;8.648;2023-04-02T00:43:28;95759.84;;;8.24;86.60
54994;BME280;40891;47.242;8.648;2023-04-02T00:45:57;95751.09;;;8.26;85.91
54994;BME280;40891;47.242;8.648;2023-04-02T00:51:11;95762.44;;;8.18;87.98
54994;BME280;40891;47.242;8.648;2023-04-02T00:53:39;95765.31;;;8.15;88.58
54994;BME280;40891;47.242;8.648;2023-04-02T00:56:14;95761.00;;;8.14;87.37
54994;BME280;40891;47.242;8.648;2023-04-02T00:58:41;95756.56;;;8.16;87.36
54994;BME280;40891;47.242;8.648;2023-04-02T01:01:16;95751.47;;;8.15;89.35
54994;BME280;40891;47.242;8.648;2023-04-02T01:03:52;95756.25;;;8.14;89.35
54994;BME280;40891;47.242;8.648;2023-04-02T01:06:18;95751.03;;;8.16;88.85
54994;BME280;40891;47.242;8.648;2023-04-02T01:14:15;95768.63;;;8.22;89.43
54994;BME280;40891;47.242;8.648;2023-04-02T01:16:52;95766.56;;;8.36;90.09
54994;BME280;40891;47.242;8.648;2023-04-02T01:19:49;95767.97;;;8.18;90.91
54994;BME280;40891;47.242;8.648;2023-04-02T01:22:36;95768.25;;;8.11;92.91
54994;BME280;40891;47.242;8.648;2023-04-02T01:25:07;95764.81;;;8.07;91.99
54994;BME280;40891;47.242;8.648;2023-04-02T01:27:46;95765.53;;;7.99;92.04
54994;BME280;40891;47.242;8.648;2023-04-02T01:30:13;95771.31;;;7.92;93.13
54994;BME280;40891;47.242;8.648;2023-04-02T01:32:40;95762.56;;;7.93;93.49
54994;BME280;40891;47.242;8.648;2023-04-02T01:35:08;95767.47;;;7.89;93.86
54994;BME280;40891;47.242;8.648;2023-04-02T01:37:55;95766.41;;;8.17;86.13
54994;BME280;40891;47.242;8.648;2023-04-02T01:40:29;95764.94;;;8.26;86.29
54994;BME280;40891;47.242;8.648;2023-04-02T01:43:16;95770.81;;;8.28;84.68
54994;BME280;40891;47.242;8.648;2023-04-02T01:45:44;95769.59;;;8.29;82.97
54994;BME280;40891;47.242;8.648;2023-04-02T01:48:16;95769.00;;;8.34;84.06
54994;BME280;40891;47.242;8.648;2023-04-02T01:50:43;95768.69;;;8.32;84.52
54994;BME280;40891;47.242;8.648;2023-04-02T01:53:12;95765.81;;;8.35;83.60
54994;BME280;40891;47.242;8.648;2023-04-02T01:55:40;95772.28;;;8.41;83.26
54994;BME280;40891;47.242;8.648;2023-04-02T01:58:06;95776.38;;;8.28;83.46
54994;BME280;40891;47.242;8.648;2023-04-02T02:00:34;95768.50;;;8.26;85.24
54994;BME280;40891;47.242;8.648;2023-04-02T02:03:01;95775.69;;;8.23;84.89
54994;BME280;40891;47.242;8.648;2023-04-02T02:05:27;95773.94;;;8.17;84.85
54994;BME280;40891;47.242;8.648;2023-04-02T02:07:55;95778.06;;;8.12;85.20
54994;BME280;40891;47.242;8.648;2023-04-02T02:10:41;95772.22;;;8.10;86.71
54994;BME280;40891;47.242;8.648;2023-04-02T02:13:13;95773.13;;;8.07;85.87
54994;BME280;40891;47.242;8.648;2023-04-02T02:15:38;95779.44;;;8.08;85.81
54994;BME280;40891;47.242;8.648;2023-04-02T02:18:05;95775.78;;;8.11;85.30
54994;BME280;40891;47.242;8.648;2023-04-02T02:20:31;95780.06;;;8.12;85.62
54994;BME280;40891;47.242;8.648;2023-04-02T02:22:57;95786.53;;;8.09;84.90
54994;BME280;40891;47.242;8.648;2023-04-02T02:25:26;95787.63;;;8.11;85.56
54994;BME280;40891;47.242;8.648;2023-04-02T02:30:56;95782.66;;;8.06;85.34
54994;BME280;40891;47.242;8.648;2023-04-02T02:33:30;95782.91;;;7.99;86.66
54994;BME280;40891;47.242;8.648;2023-04-02T02:36:06;95784.28;;;7.95;86.10
54994;BME280;40891;47.242;8.648;2023-04-02T02:38:46;95789.13;;;7.91;86.30
54994;BME280;40891;47.242;8.648;2023-04-02T02:46:30;95800.03;;;7.85;87.38
54994;BME280;40891;47.242;8.648;2023-04-02T02:48:57;95804.53;;;7.92;86.65
54994;BME280;40891;47.242;8.648;2023-04-02T02:51:37;95801.56;;;7.86;87.00
54994;BME280;40891;47.242;8.648;2023-04-02T02:54:04;95804.00;;;7.84;87.55
54994;BME280;40891;47.242;8.648;2023-04-02T02:56:31;95808.13;;;7.80;88.17
54994;BME280;40891;47.242;8.648;2023-04-02T02:58:59;95811.78;;;7.77;88.04
54994;BME280;40891;47.242;8.648;2023-04-02T03:01:28;95811.59;;;7.71;88.65
54994;BME280;40891;47.242;8.648;2023-04-02T03:03:54;95812.16;;;7.66;88.38
54994;BME280;40891;47.242;8.648;2023-04-02T03:06:20;95822.56;;;7.62;89.81
54994;BME280;40891;47.242;8.648;2023-04-02T03:11:43;95822.13;;;7.64;89.11
54994;BME280;40891;47.242;8.648;2023-04-02T03:14:47;95819.53;;;7.69;89.25
54994;BME280;40891;47.242;8.648;2023-04-02T03:17:27;95820.56;;;7.63;89.53
54994;BME280;40891;47.242;8.648;2023-04-02T03:22:30;95839.81;;;7.66;88.91
54994;BME280;40891;47.242;8.648;2023-04-02T03:25:04;95840.38;;;7.61;90.54
54994;BME280;40891;47.242;8.648;2023-04-02T03:27:38;95844.50;;;7.57;89.73
54994;BME280;40891;47.242;8.648;2023-04-02T03:30:25;95838.75;;;7.51;90.02
54994;BME280;40891;47.242;8.648;2023-04-02T03:32:54;95844.84;;;7.46;90.50
54994;BME280;40891;47.242;8.648;2023-04-02T03:35:29;95848.94;;;7.41;91.38
54994;BME280;40891;47.242;8.648;2023-04-02T03:38:29;95846.50;;;7.43;92.74
54994;BME280;40891;47.242;8.648;2023-04-02T03:43:46;95860.38;;;7.18;96.31
54994;BME280;40891;47.242;8.648;2023-04-02T03:46:21;95862.03;;;7.16;94.65
54994;BME280;40891;47.242;8.648;2023-04-02T03:48:52;95856.81;;;7.18;94.41
54994;BME280;40891;47.242;8.648;2023-04-02T03:51:39;95854.84;;;7.06;96.12
54994;BME280;40891;47.242;8.648;2023-04-02T03:54:14;95866.78;;;7.03;96.10
54994;BME280;40891;47.242;8.648;2023-04-02T03:56:41;95862.34;;;6.93;96.14
54994;BME280;40891;47.242;8.648;2023-04-02T04:04:47;95866.56;;;6.72;98.41
54994;BME280;40891;47.242;8.648;2023-04-02T04:07:34;95872.03;;;6.59;99.82
54994;BME280;40891;47.242;8.648;2023-04-02T04:10:02;95867.59;;;6.49;99.60
54994;BME280;40891;47.242;8.648;2023-04-02T04:12:39;95872.13;;;6.56;97.41
54994;BME280;40891;47.242;8.648;2023-04-02T04:17:38;95872.72;;;6.63;97.93
54994;BME280;40891;47.242;8.648;2023-04-02T04:20:19;95873.50;;;6.64;98.85
54994;BME280;40891;47.242;8.648;2023-04-02T04:22:48;95873.06;;;6.78;98.08
54994;BME280;40891;47.242;8.648;2023-04-02T04:25:25;95867.31;;;6.72;97.72
54994;BME280;40891;47.242;8.648;2023-04-02T04:28:15;95878.56;;;6.65;97.56
54994;BME280;40891;47.242;8.648;2023-04-02T04:30:59;95874.47;;;6.57;98.95
54994;BME280;40891;47.242;8.648;2023-04-02T04:33:29;95872.25;;;6.52;99.68
54994;BME280;40891;47.242;8.648;2023-04-02T04:36:04;95876.53;;;6.53;100.00
54994;BME280;40891;47.242;8.648;2023-04-02T04:38:33;95876.22;;;6.51;100.00
54994;BME280;40891;47.242;8.648;2023-04-02T04:41:19;95877.31;;;6.54;100.00
54994;BME280;40891;47.242;8.648;2023-04-02T04:43:57;95879.75;;;6.52;100.00
54994;BME280;40891;47.242;8.648;2023-04-02T04:46:54;95884.75;;;6.57;100.00
54994;BME280;40891;47.242;8.648;2023-04-02T04:49:27;95889.94;;;6.67;100.00
54994;BME280;40891;47.242;8.648;2023-04-02T04:51:59;95895.47;;;6.67;98.72
54994;BME280;40891;47.242;8.648;2023-04-02T04:54:30;95893.28;;;6.75;98.53
54994;BME280;40891;47.242;8.648;2023-04-02T04:57:01;95896.03;;;6.62;98.89
54994;BME280;40891;47.242;8.648;2023-04-02T04:59:31;95897.53;;;6.51;99.60
54994;BME280;40891;47.242;8.648;2023-04-02T05:02:07;95897.84;;;6.40;100.00
54994;BME280;40891;47.242;8.648;2023-04-02T05:04:42;95900.13;;;6.29;100.00
54994;BME280;40891;47.242;8.648;2023-04-02T05:07:18;95905.84;;;6.22;100.00
54994;BME280;40891;47.242;8.648;2023-04-02T05:10:03;95908.25;;;6.20;100.00
54994;BME280;40891;47.242;8.648;2023-04-02T05:15:09;95906.47;;;6.13;100.00
54994;BME280;40891;47.242;8.648;2023-04-02T05:20:49;95919.66;;;6.22;100.00
54994;BME280;40891;47.242;8.648;2023-04-02T05:23:29;95927.22;;;6.18;100.00
54994;BME280;40891;47.242;8.648;2023-04-02T05:26:01;95919.47;;;6.13;100.00
54994;BME280;40891;47.242;8.648;2023-04-02T05:28:56;95919.06;;;6.14;100.00
54994;BME280;40891;47.242;8.648;2023-04-02T05:31:34;95921.72;;;6.18;100.00
54994;BME280;40891;47.242;8.648;2023-04-02T05:34:02;95926.38;;;6.21;100.00
54994;BME280;40891;47.242;8.648;2023-04-02T05:36:28;95928.94;;;6.28;100.00
54994;BME280;40891;47.242;8.648;2023-04-02T05:38:55;95933.47;;;6.35;100.00
54994;BME280;40891;47.242;8.648;2023-04-02T05:41:38;95935.63;;;6.43;100.00
54994;BME280;40891;47.242;8.648;2023-04-02T05:44:07;95937.84;;;6.48;100.00
54994;BME280;40891;47.242;8.648;2023-04-02T05:46:42;95942.41;;;6.55;100.00
54994;BME280;40891;47.242;8.648;2023-04-02T05:49:18;95951.59;;;6.64;100.00
54994;BME280;40891;47.242;8.648;2023-04-02T05:51:49;95945.88;;;6.71;100.00
54994;BME280;40891;47.242;8.648;2023-04-02T05:56:52;95952.97;;;6.85;99.79
54994;BME280;40891;47.242;8.648;2023-04-02T05:59:28;95950.44;;;6.91;99.87
54994;BME280;40891;47.242;8.648;2023-04-02T06:02:02;95947.47;;;6.98;98.49
54994;BME280;40891;47.242;8.648;2023-04-02T06:04:38;95951.91;;;7.08;99.26
54994;BME280;40891;47.242;8.648;2023-04-02T06:09:42;95948.84;;;7.31;96.66
54994;BME280;40891;47.242;8.648;2023-04-02T06:15:00;95950.25;;;7.61;95.71
54994;BME280;40891;47.242;8.648;2023-04-02T06:17:26;95946.72;;;7.73;96.25
54994;BME280;40891;47.242;8.648;2023-04-02T06:19:53;95952.56;;;7.87;94.30
54994;BME280;40891;47.242;8.648;2023-04-02T06:22:32;95958.41;;;8.02;93.48
54994;BME280;40891;47.242;8.648;2023-04-02T06:25:09;95956.75;;;8.04;92.45
54994;BME280;40891;47.242;8.648;2023-04-02T06:27:38;95961.56;;;8.26;91.77
54994;BME280;40891;47.242;8.648;2023-04-02T06:30:13;95950.66;;;8.44;91.75
54994;BME280;40891;47.242;8.648;2023-04-02T06:32:40;95960.66;;;8.63;85.91
54994;BME280;40891;47.242;8.648;2023-04-02T06:35:11;95951.25;;;8.82;85.14
54994;BME280;40891;47.242;8.648;2023-04-02T06:37:38;95958.13;;;8.99;84.13
54994;BME280;40891;47.242;8.648;2023-04-02T06:40:28;95961.16;;;9.14;80.82
54994;BME280;40891;47.242;8.648;2023-04-02T06:42:59;95972.16;;;9.26;79.73
54994;BME280;40891;47.242;8.648;2023-04-02T06:45:29;95963.06;;;9.56;78.85
54994;BME280;40891;47.242;8.648;2023-04-02T06:47:58;95961.44;;;9.77;78.88
54994;BME280;40891;47.242;8.648;2023-04-02T06:50:50;95958.25;;;9.97;77.76
54994;BME280;40891;47.242;8.648;2023-04-02T06:53:29;95959.53;;;10.05;76.75
54994;BME280;40891;47.242;8.648;2023-04-02T06:56:04;95972.16;;;10.06;75.37
54994;BME280;40891;47.242;8.648;2023-04-02T06:58:31;95976.84;;;10.18;74.86
54994;BME280;40891;47.242;8.648;2023-04-02T07:00:56;95976.13;;;10.27;75.87
54994;BME280;40891;47.242;8.648;2023-04-02T07:03:26;95986.47;;;10.35;80.18
54994;BME280;40891;47.242;8.648;2023-04-02T07:05:52;95986.00;;;10.37;79.67
54994;BME280;40891;47.242;8.648;2023-04-02T07:08:18;95985.06;;;10.40;80.75
54994;BME280;40891;47.242;8.648;2023-04-02T07:10:43;95993.72;;;10.42;80.50
54994;BME280;40891;47.242;8.648;2023-04-02T07:13:14;95995.59;;;10.54;79.12
54994;BME280;40891;47.242;8.648;2023-04-02T07:15:40;95996.69;;;10.47;77.92
54994;BME280;40891;47.242;8.648;2023-04-02T07:18:06;95996.81;;;10.44;77.99
54994;BME280;40891;47.242;8.648;2023-04-02T07:20:33;96000.53;;;10.50;78.08
54994;BME280;40891;47.242;8.648;2023-04-02T07:23:01;95993.72;;;10.51;79.03
54994;BME280;40891;47.242;8.648;2023-04-02T07:25:27;96005.63;;;10.60;79.31
54994;BME280;40891;47.242;8.648;2023-04-02T07:27:53;95992.81;;;10.72;77.49
54994;BME280;40891;47.242;8.648;2023-04-02T07:30:18;95994.22;;;10.76;77.42
54994;BME280;40891;47.242;8.648;2023-04-02T07:32:44;95988.38;;;10.83;75.53
54994;BME280;40891;47.242;8.648;2023-04-02T07:35:10;95991.91;;;10.93;74.65
54994;BME280;40891;47.242;8.648;2023-04-02T07:37:36;95994.53;;;10.97;76.89
54994;BME280;40891;47.242;8.648;2023-04-02T07:40:03;96005.78;;;11.11;77.30
54994;BME280;40891;47.242;8.648;2023-04-02T07:42:30;95995.44;;;11.12;78.00
54994;BME280;40891;47.242;8.648;2023-04-02T07:44:55;95994.69;;;11.02;76.69
54994;BME280;40891;47.242;8.648;2023-04-02T07:47:21;95991.41;;;11.04;76.66
54994;BME280;40891;47.242;8.648;2023-04-02T07:49:46;95999.78;;;11.04;76.70
54994;BME280;40891;47.242;8.648;2023-04-02T07:52:11;95991.25;;;10.98;77.80
54994;BME280;40891;47.242;8.648;2023-04-02T07:54:37;96002.06;;;11.05;79.15
54994;BME280;40891;47.242;8.648;2023-04-02T07:57:02;96008.09;;;11.13;78.99
54994;BME280;40891;47.242;8.648;2023-04-02T07:59:28;96008.41;;;11.24;78.18
54994;BME280;40891;47.242;8.648;2023-04-02T08:01:53;96010.09;;;11.30;75.79
54994;BME280;40891;47.242;8.648;2023-04-02T08:04:20;96012.84;;;11.48;73.81
54994;BME280;40891;47.242;8.648;2023-04-02T08:06:46;96012.34;;;11.59;73.57
54994;BME280;40891;47.242;8.648;2023-04-02T08:09:13;96015.16;;;12.01;72.91
54994;BME280;40891;47.242;8.648;2023-04-02T08:11:38;96013.56;;;12.42;71.16
54994;BME280;40891;47.242;8.648;2023-04-02T08:14:06;96014.63;;;12.91;68.79
54994;BME280;40891;47.242;8.648;2023-04-02T08:16:46;96010.47;;;13.40;65.18
54994;BME280;40891;47.242;8.648;2023-04-02T08:19:12;96001.06;;;13.81;65.64
54994;BME280;40891;47.242;8.648;2023-04-02T08:21:37;96004.97;;;14.04;62.42
54994;BME280;40891;47.242;8.648;2023-04-02T08:24:02;96003.88;;;14.16;61.96
54994;BME280;40891;47.242;8.648;2023-04-02T08:26:28;96016.69;;;14.22;56.64
54994;BME280;40891;47.242;8.648;2023-04-02T08:28:53;96012.03;;;13.85;58.99
54994;BME280;40891;47.242;8.648;2023-04-02T08:31:19;96011.78;;;14.17;60.78
54994;BME280;40891;47.242;8.648;2023-04-02T08:33:45;96013.97;;;14.28;62.33
54994;BME280;40891;47.242;8.648;2023-04-02T08:36:15;96015.03;;;14.65;58.69
54994;BME280;40891;47.242;8.648;2023-04-02T08:38:41;96019.25;;;14.75;58.18
54994;BME280;40891;47.242;8.648;2023-04-02T08:41:07;96018.41;;;14.89;58.52
54994;BME280;40891;47.242;8.648;2023-04-02T08:46:18;96028.31;;;14.50;56.50
54994;BME280;40891;47.242;8.648;2023-04-02T08:48:52;96020.44;;;14.89;56.36
54994;BME280;40891;47.242;8.648;2023-04-02T08:51:34;96017.34;;;14.87;55.18
54994;BME280;40891;47.242;8.648;2023-04-02T08:54:34;96027.00;;;14.66;56.15
54994;BME280;40891;47.242;8.648;2023-04-02T08:57:06;96028.28;;;14.85;55.91
54994;BME280;40891;47.242;8.648;2023-04-02T08:59:41;96034.53;;;14.25;55.45
54994;BME280;40891;47.242;8.648;2023-04-02T09:04:41;96039.69;;;15.02;55.48
54994;BME280;40891;47.242;8.648;2023-04-02T09:07:11;96030.63;;;15.12;54.13
54994;BME280;40891;47.242;8.648;2023-04-02T09:09:37;96045.41;;;14.72;52.52
54994;BME280;40891;47.242;8.648;2023-04-02T09:12:04;96045.84;;;13.87;54.36
54994;BME280;40891;47.242;8.648;2023-04-02T09:14:42;96047.84;;;14.01;55.28
54994;BME280;40891;47.242;8.648;2023-04-02T09:19:50;96053.25;;;13.60;55.58
54994;BME280;40891;47.242;8.648;2023-04-02T09:22:20;96050.34;;;14.13;55.57
54994;BME280;40891;47.242;8.648;2023-04-02T09:24:55;96035.06;;;14.98;52.78
54994;BME280;40891;47.242;8.648;2023-04-02T09:27:24;96043.34;;;15.33;50.40
54994;BME280;40891;47.242;8.648;2023-04-02T09:29:56;96047.69;;;16.06;47.55
54994;BME280;40891;47.242;8.648;2023-04-02T09:32:43;96041.03;;;16.03;48.89
54994;BME280;40891;47.242;8.648;2023-04-02T09:35:16;96041.31;;;16.05;50.04
54994;BME280;40891;47.242;8.648;2023-04-02T09:37:43;96053.63;;;15.88;50.01
54994;BME280;40891;47.242;8.648;2023-04-02T09:40:25;96063.16;;;15.70;49.61
54994;BME280;40891;47.242;8.648;2023-04-02T09:43:14;96073.41;;;13.79;53.78
54994;BME280;40891;47.242;8.648;2023-04-02T09:45:41;96085.56;;;13.23;56.51
54994;BME280;40891;47.242;8.648;2023-04-02T09:51:11;96070.59;;;13.94;55.26
54994;BME280;40891;47.242;8.648;2023-04-02T09:53:40;96073.13;;;14.36;55.36
54994;BME280;40891;47.242;8.648;2023-04-02T09:56:08;96079.75;;;13.94;53.55
54994;BME280;40891;47.242;8.648;2023-04-02T09:58:34;96083.53;;;13.77;55.67
54994;BME280;40891;47.242;8.648;2023-04-02T10:01:00;96081.41;;;13.86;55.17
54994;BME280;40891;47.242;8.648;2023-04-02T10:03:30;96080.25;;;14.22;53.45
54994;BME280;40891;47.242;8.648;2023-04-02T10:06:14;96075.63;;;13.90;53.97
54994;BME280;40891;47.242;8.648;2023-04-02T10:08:42;96073.59;;;13.90;54.79
54994;BME280;40891;47.242;8.648;2023-04-02T10:11:15;96082.09;;;13.28;56.53
54994;BME280;40891;47.242;8.648;2023-04-02T10:21:35;96100.75;;;13.60;56.43
54994;BME280;40891;47.242;8.648;2023-04-02T10:24:01;96091.91;;;14.06;56.32
54994;BME280;40891;47.242;8.648;2023-04-02T10:32:08;96096.66;;;14.78;54.54
54994;BME280;40891;47.242;8.648;2023-04-02T10:40:02;96098.97;;;15.60;50.46
54994;BME280;40891;47.242;8.648;2023-04-02T10:45:27;96095.34;;;15.34;51.42
54994;BME280;40891;47.242;8.648;2023-04-02T10:48:07;96101.84;;;15.26;51.36
54994;BME280;40891;47.242;8.648;2023-04-02T10:50:50;96101.53;;;15.64;50.94
54994;BME280;40891;47.242;8.648;2023-04-02T10:53:19;96100.41;;;16.59;49.08
54994;BME280;40891;47.242;8.648;2023-04-02T10:55:51;96081.09;;;19.12;44.13
54994;BME280;40891;47.242;8.648;2023-04-02T10:58:22;96065.72;;;20.52;40.13
54994;BME280;40891;47.242;8.648;2023-04-02T11:00:49;96057.69;;;23.35;34.53
54994;BME280;40891;47.242;8.648;2023-04-02T11:03:27;96046.72;;;25.64;30.29
54994;BME280;40891;47.242;8.648;2023-04-02T11:05:56;96056.19;;;27.14;26.98
54994;BME280;40891;47.242;8.648;2023-04-02T11:08:44;96045.78;;;29.40;24.80
54994;BME280;40891;47.242;8.648;2023-04-02T11:16:22;96080.69;;;23.45;31.49
54994;BME280;40891;47.242;8.648;2023-04-02T11:21:42;96093.50;;;21.07;35.97
54994;BME280;40891;47.242;8.648;2023-04-02T11:29:29;96086.97;;;21.18;36.48
54994;BME280;40891;47.242;8.648;2023-04-02T11:42:34;96097.84;;;20.13;37.29
54994;BME280;40891;47.242;8.648;2023-04-02T11:50:28;96102.31;;;21.46;36.52
54994;BME280;40891;47.242;8.648;2023-04-02T11:55:43;96101.25;;;20.01;36.99
54994;BME280;40891;47.242;8.648;2023-04-02T11:58:30;96110.13;;;19.69;38.63
54994;BME280;40891;47.242;8.648;2023-04-02T12:12:35;96099.63;;;21.35;33.01
54994;BME280;40891;47.242;8.648;2023-04-02T12:15:42;96098.09;;;21.10;34.12
54994;BME280;40891;47.242;8.648;2023-04-02T12:18:22;96104.13;;;20.66;35.39
54994;BME280;40891;47.242;8.648;2023-04-02T12:20:50;96104.13;;;20.36;35.14
54994;BME280;40891;47.242;8.648;2023-04-02T12:23:23;96110.19;;;20.05;36.17
54994;BME280;40891;47.242;8.648;2023-04-02T12:25:59;96105.59;;;20.02;36.14
54994;BME280;40891;47.242;8.648;2023-04-02T12:28:27;96105.41;;;19.94;38.14
54994;BME280;40891;47.242;8.648;2023-04-02T12:31:03;96110.03;;;19.86;38.59
54994;BME280;40891;47.242;8.648;2023-04-02T12:33:30;96120.09;;;18.85;38.06
54994;BME280;40891;47.242;8.648;2023-04-02T12:36:00;96119.97;;;19.41;39.69
54994;BME280;40891;47.242;8.648;2023-04-02T12:38:28;96109.22;;;19.34;39.74
54994;BME280;40891;47.242;8.648;2023-04-02T12:41:00;96114.63;;;19.37;39.62
54994;BME280;40891;47.242;8.648;2023-04-02T12:43:30;96112.59;;;19.21;39.53
54994;BME280;40891;47.242;8.648;2023-04-02T12:46:03;96118.03;;;18.97;40.23
54994;BME280;40891;47.242;8.648;2023-04-02T12:48:30;96128.50;;;19.08;40.67
54994;BME280;40891;47.242;8.648;2023-04-02T12:50:56;96128.53;;;19.02;41.22
54994;BME280;40891;47.242;8.648;2023-04-02T12:53:29;96125.44;;;18.45;41.79
54994;BME280;40891;47.242;8.648;2023-04-02T12:55:56;96129.69;;;17.85;43.08
54994;BME280;40891;47.242;8.648;2023-04-02T12:58:35;96132.28;;;17.94;43.69
54994;BME280;40891;47.242;8.648;2023-04-02T13:03:35;96124.44;;;18.53;41.78
54994;BME280;40891;47.242;8.648;2023-04-02T13:06:01;96111.75;;;21.30;37.45
54994;BME280;40891;47.242;8.648;2023-04-02T13:08:30;96101.59;;;24.75;30.18
54994;BME280;40891;47.242;8.648;2023-04-02T13:11:02;96085.00;;;28.49;25.73
54994;BME280;40891;47.242;8.648;2023-04-02T13:13:33;96080.59;;;28.15;25.22
54994;BME280;40891;47.242;8.648;2023-04-02T13:16:05;96097.72;;;27.30;26.06
54994;BME280;40891;47.242;8.648;2023-04-02T13:18:32;96104.56;;;25.88;27.84
54994;BME280;40891;47.242;8.648;2023-04-02T13:25:59;96083.03;;;29.99;23.01
54994;BME280;40891;47.242;8.648;2023-04-02T13:28:25;96095.22;;;27.57;25.21
54994;BME280;40891;47.242;8.648;2023-04-02T13:30:50;96100.72;;;26.13;27.10
54994;BME280;40891;47.242;8.648;2023-04-02T13:33:15;96091.03;;;27.28;26.66
54994;BME280;40891;47.242;8.648;2023-04-02T13:35:41;96087.78;;;28.24;24.34
54994;BME280;40891;47.242;8.648;2023-04-02T13:38:07;96087.28;;;28.10;24.19
54994;BME280;40891;47.242;8.648;2023-04-02T13:40:34;96092.97;;;28.18;23.15
54994;BME280;40891;47.242;8.648;2023-04-02T13:43:00;96097.19;;;26.43;25.75
54994;BME280;40891;47.242;8.648;2023-04-02T13:45:32;96093.13;;;26.97;24.20
54994;BME280;40891;47.242;8.648;2023-04-02T13:47:59;96079.59;;;29.17;22.34
54994;BME280;40891;47.242;8.648;2023-04-02T13:50:29;96094.16;;;25.98;25.31
54994;BME280;40891;47.242;8.648;2023-04-02T13:53:04;96096.91;;;24.98;26.87
54994;BME280;40891;47.242;8.648;2023-04-02T13:55:34;96093.72;;;27.18;25.39
54994;BME280;40891;47.242;8.648;2023-04-02T13:58:00;96077.94;;;29.73;22.58
54994;BME280;40891;47.242;8.648;2023-04-02T14:00:26;96088.75;;;28.91;22.01
54994;BME280;40891;47.242;8.648;2023-04-02T14:02:56;96100.25;;;26.45;25.00
54994;BME280;40891;47.242;8.648;2023-04-02T14:05:36;96083.28;;;28.46;22.38
54994;BME280;40891;47.242;8.648;2023-04-02T14:08:18;96075.94;;;30.00;20.97
54994;BME280;40891;47.242;8.648;2023-04-02T14:17:05;96089.25;;;31.75;18.54
54994;BME280;40891;47.242;8.648;2023-04-02T14:19:51;96082.53;;;33.68;17.34
54994;BME280;40891;47.242;8.648;2023-04-02T14:22:42;96084.03;;;33.08;17.18
54994;BME280;40891;47.242;8.648;2023-04-02T14:33:29;96109.69;;;27.06;23.81
54994;BME280;40891;47.242;8.648;2023-04-02T14:36:26;96114.19;;;26.64;24.44
54994;BME280;40891;47.242;8.648;2023-04-02T14:39:00;96096.94;;;29.44;22.19
54994;BME280;40891;47.242;8.648;2023-04-02T14:41:55;96103.50;;;28.00;23.97
54994;BME280;40891;47.242;8.648;2023-04-02T14:44:24;96104.91;;;28.71;22.80
54994;BME280;40891;47.242;8.648;2023-04-02T14:46:59;96106.69;;;26.46;26.26
54994;BME280;40891;47.242;8.648;2023-04-02T14:49:37;96122.28;;;25.17;27.44
54994;BME280;40891;47.242;8.648;2023-04-02T14:52:11;96120.16;;;24.34;29.21
54994;BME280;40891;47.242;8.648;2023-04-02T14:54:53;96135.53;;;22.26;33.02
54994;BME280;40891;47.242;8.648;2023-04-02T15:02:33;96138.47;;;19.36;39.01
54994;BME280;40891;47.242;8.648;2023-04-02T15:05:06;96143.56;;;19.27;39.24
54994;BME280;40891;47.242;8.648;2023-04-02T15:07:39;96145.06;;;19.50;38.69
54994;BME280;40891;47.242;8.648;2023-04-02T15:10:23;96146.72;;;19.07;38.82
54994;BME280;40891;47.242;8.648;2023-04-02T15:12:51;96151.59;;;18.73;39.29
54994;BME280;40891;47.242;8.648;2023-04-02T15:18:01;96159.84;;;17.79;43.04
54994;BME280;40891;47.242;8.648;2023-04-02T15:20:37;96157.75;;;17.62;45.85
54994;BME280;40891;47.242;8.648;2023-04-02T15:26:18;96164.13;;;17.57;47.83
54994;BME280;40891;47.242;8.648;2023-04-02T15:28:53;96153.28;;;17.45;46.36
54994;BME280;40891;47.242;8.648;2023-04-02T15:31:25;96158.63;;;17.37;47.45
54994;BME280;40891;47.242;8.648;2023-04-02T15:36:35;96165.19;;;17.23;47.16
54994;BME280;40891;47.242;8.648;2023-04-02T15:42:01;96161.78;;;17.14;47.14
54994;BME280;40891;47.242;8.648;2023-04-02T15:44:28;96160.25;;;16.70;45.47
54994;BME280;40891;47.242;8.648;2023-04-02T15:47:04;96160.19;;;16.39;46.75
54994;BME280;40891;47.242;8.648;2023-04-02T15:49:50;96172.31;;;15.99;46.66
54994;BME280;40891;47.242;8.648;2023-04-02T15:52:32;96169.94;;;15.92;47.17
54994;BME280;40891;47.242;8.648;2023-04-02T15:55:09;96170.84;;;15.84;48.34
54994;BME280;40891;47.242;8.648;2023-04-02T15:57:58;96179.75;;;15.62;48.26
54994;BME280;40891;47.242;8.648;2023-04-02T16:00:29;96185.63;;;15.64;48.44
54994;BME280;40891;47.242;8.648;2023-04-02T16:06:08;96193.44;;;14.85;48.89
54994;BME280;40891;47.242;8.648;2023-04-02T16:08:54;96196.59;;;14.92;48.57
54994;BME280;40891;47.242;8.648;2023-04-02T16:11:23;96196.75;;;14.69;48.16
54994;BME280;40891;47.242;8.648;2023-04-02T16:13:51;96201.25;;;14.81;49.53
54994;BME280;40891;47.242;8.648;2023-04-02T16:16:26;96201.41;;;15.27;49.19
54994;BME280;40891;47.242;8.648;2023-04-02T16:19:06;96207.88;;;15.47;48.70
54994;BME280;40891;47.242;8.648;2023-04-02T16:21:39;96219.81;;;15.48;48.84